createdAt,value
2019-03-24T00:00:43.544Z,5.59
2019-03-24T00:01:49.172Z,5.49
2019-03-24T00:02:43.596Z,5.46
2019-03-24T00:03:46.099Z,5.41
2019-03-24T00:04:44.131Z,5.37
2019-03-24T00:05:43.510Z,5.37
2019-03-24T00:06:45.559Z,5.31
2019-03-24T00:07:44.594Z,5.41
2019-03-24T00:08:43.055Z,5.27
2019-03-24T00:09:52.555Z,5.32
2019-03-24T00:10:46.546Z,5.25
2019-03-24T00:11:45.862Z,5.28
2019-03-24T00:12:45.599Z,5.32
2019-03-24T00:13:46.549Z,5.38
2019-03-24T00:14:44.198Z,5.38
2019-03-24T00:15:51.069Z,5.41
2019-03-24T00:17:07.535Z,5.43
2019-03-24T00:17:46.613Z,5.43
2019-03-24T00:19:00.587Z,5.45
2019-03-24T00:19:48.611Z,5.55
2019-03-24T00:20:45.072Z,5.53
2019-03-24T00:21:45.420Z,5.49
2019-03-24T00:22:48.193Z,5.48
2019-03-24T00:24:24.577Z,5.49
2019-03-24T00:24:50.549Z,5.49
2019-03-24T00:26:01.589Z,5.38
2019-03-24T00:26:49.604Z,5.41
2019-03-24T00:27:48.095Z,5.41
2019-03-24T00:28:47.547Z,5.45
2019-03-24T00:29:48.534Z,5.41
2019-03-24T00:30:49.547Z,5.43
2019-03-24T00:31:46.891Z,5.45
2019-03-24T00:32:47.094Z,5.40
2019-03-24T00:33:49.103Z,5.45
2019-03-24T00:34:48.209Z,5.49
2019-03-24T00:35:49.592Z,5.43
2019-03-24T00:36:47.817Z,5.38
2019-03-24T00:37:52.634Z,5.45
2019-03-24T00:39:06.069Z,5.45
2019-03-24T00:39:57.092Z,5.37
2019-03-24T00:40:50.571Z,5.48
2019-03-24T00:41:56.622Z,5.35
2019-03-24T00:42:52.588Z,5.43
2019-03-24T00:43:50.616Z,5.40
2019-03-24T00:44:57.086Z,5.35
2019-03-24T00:45:51.129Z,5.34
2019-03-24T00:46:51.097Z,5.48
2019-03-24T00:47:57.682Z,5.48
2019-03-24T00:48:51.588Z,5.43
2019-03-24T00:49:51.591Z,5.43
2019-03-24T00:50:50.164Z,5.40
2019-03-24T00:51:51.545Z,5.40
2019-03-24T00:53:07.048Z,5.38
2019-03-24T00:53:58.589Z,5.31
2019-03-24T00:54:53.431Z,5.30
2019-03-24T00:55:51.071Z,5.27
2019-03-24T00:56:51.137Z,5.28
2019-03-24T00:57:51.261Z,5.31
2019-03-24T00:58:52.377Z,5.20
2019-03-24T00:59:54.049Z,5.19
2019-03-24T01:00:51.793Z,5.19
2019-03-24T01:01:51.885Z,5.20
2019-03-24T01:02:54.095Z,5.22
2019-03-24T01:03:55.056Z,5.23
2019-03-24T01:04:54.121Z,5.14
2019-03-24T01:06:01.831Z,5.10
2019-03-24T01:06:53.852Z,5.19
2019-03-24T01:07:52.944Z,5.16
2019-03-24T01:08:55.111Z,5.09
2019-03-24T01:09:55.547Z,5.09
2019-03-24T01:11:26.617Z,5.01
2019-03-24T01:11:55.586Z,4.96
2019-03-24T01:12:56.565Z,5.02
2019-03-24T01:13:54.199Z,5.05
2019-03-24T01:15:02.087Z,4.99
2019-03-24T01:16:23.107Z,5.02
2019-03-24T01:16:59.548Z,4.99
2019-03-24T01:17:58.587Z,4.96
2019-03-24T01:18:55.038Z,4.96
2019-03-24T01:19:58.060Z,4.99
2019-03-24T01:20:57.115Z,4.98
2019-03-24T01:22:11.089Z,5.04
2019-03-24T01:22:56.776Z,4.99
2019-03-24T01:23:58.579Z,4.96
2019-03-24T01:24:57.545Z,4.86
2019-03-24T01:25:57.044Z,4.95
2019-03-24T01:26:58.093Z,4.94
2019-03-24T01:28:04.599Z,4.94
2019-03-24T01:28:58.590Z,4.92
2019-03-24T01:30:03.597Z,5.01
2019-03-24T01:30:57.068Z,5.05
2019-03-24T01:31:59.085Z,4.99
2019-03-24T01:32:57.296Z,5.01
2019-03-24T01:33:58.558Z,5.01
2019-03-24T01:35:08.657Z,5.13
2019-03-24T01:36:00.610Z,4.99
2019-03-24T01:36:59.599Z,5.04
2019-03-24T01:37:58.170Z,5.04
2019-03-24T01:39:00.095Z,5.04
2019-03-24T01:40:01.568Z,5.05
2019-03-24T01:41:08.081Z,5.04
2019-03-24T01:42:00.059Z,5.04
2019-03-24T01:43:00.616Z,5.01
2019-03-24T01:44:03.093Z,5.17
2019-03-24T01:45:07.099Z,5.07
2019-03-24T01:45:59.597Z,5.05
2019-03-24T01:47:03.581Z,5.01
2019-03-24T01:48:05.064Z,5.01
2019-03-24T01:49:01.617Z,5.02
2019-03-24T01:50:02.085Z,5.01
2019-03-24T01:51:05.053Z,5.09
2019-03-24T01:52:12.545Z,4.98
2019-03-24T01:53:02.606Z,4.96
2019-03-24T01:54:05.551Z,5.01
2019-03-24T01:55:03.085Z,4.98
2019-03-24T01:56:09.097Z,4.99
2019-03-24T01:57:01.530Z,4.96
2019-03-24T01:58:04.003Z,4.89
2019-03-24T01:59:01.881Z,4.95
2019-03-24T02:00:04.582Z,4.99
2019-03-24T02:01:02.225Z,4.91
2019-03-24T02:02:06.284Z,4.89
2019-03-24T02:03:04.091Z,4.94
2019-03-24T02:04:04.598Z,4.95
2019-03-24T02:05:04.586Z,4.99
2019-03-24T02:06:10.616Z,4.94
2019-03-24T02:07:04.587Z,4.96
2019-03-24T02:08:05.091Z,4.96
2019-03-24T02:09:07.090Z,5.04
2019-03-24T02:10:05.047Z,4.94
2019-03-24T02:11:03.642Z,5.04
2019-03-24T02:12:03.846Z,5.05
2019-03-24T02:13:06.573Z,5.04
2019-03-24T02:14:27.098Z,5.14
2019-03-24T02:15:07.048Z,5.13
2019-03-24T02:16:12.125Z,5.14
2019-03-24T02:17:06.605Z,5.22
2019-03-24T02:18:06.586Z,5.14
2019-03-24T02:19:04.939Z,5.25
2019-03-24T02:20:06.157Z,5.14
2019-03-24T02:21:05.356Z,5.22
2019-03-24T02:22:05.554Z,5.23
2019-03-24T02:23:12.654Z,5.17
2019-03-24T02:24:09.591Z,5.30
2019-03-24T02:25:08.141Z,5.19
2019-03-24T02:26:13.134Z,5.20
2019-03-24T02:27:14.089Z,5.25
2019-03-24T02:28:06.823Z,5.16
2019-03-24T02:29:06.955Z,5.12
2019-03-24T02:30:12.061Z,5.25
2019-03-24T02:31:10.049Z,5.28
2019-03-24T02:32:08.597Z,5.17
2019-03-24T02:33:11.149Z,5.22
2019-03-24T02:34:08.743Z,5.25
2019-03-24T02:35:31.608Z,5.20
2019-03-24T02:36:16.338Z,5.31
2019-03-24T02:37:08.242Z,5.22
2019-03-24T02:38:09.458Z,5.31
2019-03-24T02:39:10.589Z,5.28
2019-03-24T02:40:08.784Z,5.30
2019-03-24T02:41:09.055Z,5.17
2019-03-24T02:42:30.107Z,5.25
2019-03-24T02:43:11.131Z,5.30
2019-03-24T02:44:12.056Z,5.19
2019-03-24T02:45:11.597Z,5.25
2019-03-24T02:46:23.577Z,5.17
2019-03-24T02:47:11.603Z,5.25
2019-03-24T02:48:12.132Z,5.37
2019-03-24T02:49:12.092Z,5.28
2019-03-24T02:50:17.098Z,5.37
2019-03-24T02:51:12.642Z,5.34
2019-03-24T02:52:10.852Z,5.32
2019-03-24T02:53:26.592Z,5.41
2019-03-24T02:54:12.048Z,5.35
2019-03-24T02:55:13.540Z,5.50
2019-03-24T02:56:11.509Z,5.45
2019-03-24T02:57:13.588Z,5.45
2019-03-24T02:58:13.594Z,5.41
2019-03-24T02:59:14.362Z,5.46
2019-03-24T03:00:14.097Z,5.40
2019-03-24T03:01:12.480Z,5.50
2019-03-24T03:02:14.554Z,5.49
2019-03-24T03:03:16.596Z,5.57
2019-03-24T03:04:16.590Z,5.52
2019-03-24T03:05:13.089Z,5.46
2019-03-24T03:06:13.197Z,5.56
2019-03-24T03:07:17.087Z,5.41
2019-03-24T03:08:21.658Z,5.43
2019-03-24T03:09:17.635Z,5.41
2019-03-24T03:10:16.541Z,5.38
2019-03-24T03:11:16.601Z,5.37
2019-03-24T03:12:16.091Z,5.52
2019-03-24T03:13:14.296Z,5.52
2019-03-24T03:14:15.261Z,5.56
2019-03-24T03:15:16.591Z,5.52
2019-03-24T03:16:14.928Z,5.50
2019-03-24T03:17:17.093Z,5.49
2019-03-24T03:18:17.097Z,5.52
2019-03-24T03:19:15.530Z,5.50
2019-03-24T03:20:19.632Z,5.46
2019-03-24T03:22:51.414Z,5.48
2019-03-24T03:23:51.470Z,5.53
2019-03-24T03:24:56.031Z,5.53
2019-03-24T03:25:51.972Z,5.49
2019-03-24T03:26:55.993Z,5.53
2019-03-24T03:27:51.531Z,5.55
2019-03-24T03:28:53.934Z,5.57
2019-03-24T03:29:50.542Z,5.53
2019-03-24T03:30:50.980Z,5.55
2019-03-24T03:31:50.977Z,5.60
2019-03-24T03:32:51.926Z,5.63
2019-03-24T03:33:51.972Z,5.57
2019-03-24T03:34:49.702Z,5.59
2019-03-24T03:35:49.808Z,5.63
2019-03-24T03:36:52.506Z,5.63
2019-03-24T03:37:54.009Z,5.67
2019-03-24T03:38:56.996Z,5.53
2019-03-24T03:39:57.494Z,5.66
2019-03-24T03:40:54.503Z,5.68
2019-03-24T03:41:51.820Z,5.75
2019-03-24T03:43:02.472Z,5.66
2019-03-24T03:43:53.033Z,5.60
2019-03-24T03:44:58.969Z,5.71
2019-03-24T03:45:51.379Z,5.71
2019-03-24T03:46:53.438Z,5.74
2019-03-24T03:47:52.644Z,5.60
2019-03-24T03:48:54.438Z,5.74
2019-03-24T03:49:59.977Z,5.66
2019-03-24T03:50:52.205Z,5.70
2019-03-24T03:51:59.970Z,5.73
2019-03-24T03:52:57.436Z,5.83
2019-03-24T03:53:54.475Z,5.86
2019-03-24T03:54:52.798Z,5.85
2019-03-24T03:55:54.993Z,5.83
2019-03-24T03:56:53.212Z,5.98
2019-03-24T03:57:53.473Z,6.04
2019-03-24T03:58:56.444Z,6.00
2019-03-24T03:59:53.779Z,6.04
2019-03-24T04:00:55.983Z,6.11
2019-03-24T04:01:54.188Z,6.13
2019-03-24T04:02:57.998Z,6.25
2019-03-24T04:03:57.974Z,6.19
2019-03-24T04:04:58.471Z,6.14
2019-03-24T04:05:56.486Z,6.22
2019-03-24T04:06:55.055Z,6.32
2019-03-24T04:07:58.986Z,6.19
2019-03-24T04:08:55.491Z,6.26
2019-03-24T04:09:55.656Z,6.26
2019-03-24T04:10:57.470Z,6.36
2019-03-24T04:11:59.501Z,6.33
2019-03-24T04:12:56.160Z,6.32
2019-03-24T04:13:57.940Z,6.43
2019-03-24T04:14:58.515Z,6.33
2019-03-24T04:15:58.499Z,6.40
2019-03-24T04:17:06.804Z,6.43
2019-03-24T04:17:57.082Z,6.36
2019-03-24T04:18:58.227Z,6.46
2019-03-24T04:19:57.821Z,6.50
2019-03-24T04:20:58.449Z,6.53
2019-03-24T04:21:59.565Z,6.54
2019-03-24T04:22:57.837Z,6.56
2019-03-24T04:23:59.981Z,6.54
2019-03-24T04:25:01.851Z,6.65
2019-03-24T04:26:14.023Z,6.69
2019-03-24T04:26:59.980Z,6.66
2019-03-24T04:27:59.726Z,6.65
2019-03-24T04:28:58.973Z,6.66
2019-03-24T04:29:59.031Z,6.76
2019-03-24T04:31:00.971Z,6.83
2019-03-24T04:31:59.480Z,6.79
2019-03-24T04:33:00.596Z,6.76
2019-03-24T04:33:59.785Z,6.80
2019-03-24T04:34:59.983Z,6.90
2019-03-24T04:36:00.215Z,6.84
2019-03-24T04:37:01.994Z,6.81
2019-03-24T04:38:08.517Z,6.73
2019-03-24T04:39:03.427Z,6.79
2019-03-24T04:40:00.886Z,6.79
2019-03-24T04:41:01.934Z,6.79
2019-03-24T04:42:05.414Z,6.68
2019-03-24T04:43:05.476Z,6.73
2019-03-24T04:44:03.472Z,6.80
2019-03-24T04:45:02.960Z,6.63
2019-03-24T04:46:05.483Z,6.66
2019-03-24T04:47:16.377Z,6.73
2019-03-24T04:48:05.969Z,6.76
2019-03-24T04:49:02.445Z,6.81
2019-03-24T04:50:04.486Z,6.73
2019-03-24T04:51:03.759Z,6.65
2019-03-24T04:52:02.843Z,6.76
2019-03-24T04:53:28.018Z,6.69
2019-03-24T04:54:03.259Z,6.77
2019-03-24T04:55:05.975Z,6.79
2019-03-24T04:56:07.488Z,6.65
2019-03-24T04:57:03.699Z,6.68
2019-03-24T04:58:19.471Z,6.66
2019-03-24T04:59:06.939Z,6.79
2019-03-24T05:00:05.171Z,6.73
2019-03-24T05:01:07.972Z,6.81
2019-03-24T05:02:06.428Z,6.80
2019-03-24T05:03:10.513Z,6.80
2019-03-24T05:04:05.987Z,6.83
2019-03-24T05:05:09.014Z,6.86
2019-03-24T05:06:07.936Z,6.72
2019-03-24T05:07:05.526Z,6.95
2019-03-24T05:08:07.493Z,6.89
2019-03-24T05:09:09.475Z,6.89
2019-03-24T05:10:06.076Z,6.89
2019-03-24T05:11:06.301Z,6.95
2019-03-24T05:12:06.381Z,6.84
2019-03-24T05:13:08.505Z,6.94
2019-03-24T05:14:06.730Z,6.84
2019-03-24T05:15:09.480Z,6.89
2019-03-24T05:16:07.051Z,6.95
2019-03-24T05:17:08.971Z,7.02
2019-03-24T05:18:08.982Z,6.94
2019-03-24T05:19:08.432Z,7.01
2019-03-24T05:20:07.824Z,6.95
2019-03-24T05:21:09.422Z,7.01
2019-03-24T05:22:09.981Z,7.01
2019-03-24T05:23:10.044Z,6.97
2019-03-24T05:24:10.025Z,7.07
2019-03-24T05:25:10.472Z,6.99
2019-03-24T05:26:10.519Z,7.04
2019-03-24T05:27:08.880Z,7.16
2019-03-24T05:28:09.084Z,7.04
2019-03-24T05:29:10.321Z,7.13
2019-03-24T05:30:12.982Z,7.02
2019-03-24T05:31:11.510Z,7.05
2019-03-24T05:32:09.717Z,7.17
2019-03-24T05:33:09.943Z,7.15
2019-03-24T05:34:11.922Z,7.17
2019-03-24T05:35:12.016Z,7.23
2019-03-24T05:36:11.975Z,7.27
2019-03-24T05:37:10.747Z,7.24
2019-03-24T05:38:11.442Z,7.19
2019-03-24T05:39:18.999Z,7.42
2019-03-24T05:40:11.264Z,7.47
2019-03-24T05:41:12.023Z,7.38
2019-03-24T05:42:19.519Z,7.32
2019-03-24T05:43:11.726Z,7.42
2019-03-24T05:44:12.431Z,7.40
2019-03-24T05:45:13.158Z,7.40
2019-03-24T05:46:13.969Z,7.37
2019-03-24T05:47:36.806Z,7.38
2019-03-24T05:48:16.474Z,7.37
2019-03-24T05:49:12.794Z,7.44
2019-03-24T05:50:14.014Z,7.40
2019-03-24T05:51:21.029Z,7.37
2019-03-24T05:52:13.427Z,7.41
2019-03-24T05:53:15.469Z,7.37
2019-03-24T05:54:13.807Z,7.41
2019-03-24T05:55:14.015Z,7.52
2019-03-24T05:56:17.970Z,7.38
2019-03-24T05:57:16.000Z,7.37
2019-03-24T05:58:14.624Z,7.50
2019-03-24T05:59:14.751Z,7.55
2019-03-24T06:00:18.517Z,7.47
2019-03-24T06:01:16.999Z,7.53
2019-03-24T06:02:16.198Z,7.56
2019-03-24T06:03:21.000Z,7.66
2019-03-24T06:04:16.608Z,7.66
2019-03-24T06:05:17.471Z,7.77
2019-03-24T06:06:16.859Z,7.89
2019-03-24T06:07:19.975Z,7.75
2019-03-24T06:08:17.981Z,7.89
2019-03-24T06:09:18.924Z,7.93
2019-03-24T06:10:17.664Z,7.90
2019-03-24T06:11:16.748Z,7.92
2019-03-24T06:12:17.954Z,8.03
2019-03-24T06:13:17.155Z,8.02
2019-03-24T06:14:18.937Z,8.03
2019-03-24T06:15:21.469Z,8.14
2019-03-24T06:16:19.525Z,8.12
2019-03-24T06:17:17.893Z,8.08
2019-03-24T06:18:18.020Z,8.08
2019-03-24T06:19:19.109Z,8.00
2019-03-24T06:20:19.980Z,8.15
2019-03-24T06:21:30.097Z,8.12
2019-03-24T06:22:21.490Z,8.11
2019-03-24T06:23:19.711Z,8.04
2019-03-24T06:24:18.927Z,8.26
2019-03-24T06:25:20.982Z,8.25
2019-03-24T06:26:20.971Z,8.21
2019-03-24T06:27:20.976Z,8.30
2019-03-24T06:28:19.565Z,8.36
2019-03-24T06:29:19.792Z,8.37
2019-03-24T06:30:19.974Z,8.51
2019-03-24T06:31:20.176Z,8.53
2019-03-24T06:32:21.983Z,8.53
2019-03-24T06:33:20.459Z,8.60
2019-03-24T06:34:22.517Z,8.55
2019-03-24T06:35:27.475Z,8.62
2019-03-24T06:36:21.057Z,8.66
2019-03-24T06:37:21.268Z,8.55
2019-03-24T06:38:22.972Z,8.65
2019-03-24T06:39:22.958Z,8.63
2019-03-24T06:40:21.862Z,8.58
2019-03-24T06:41:21.947Z,8.69
2019-03-24T06:42:24.000Z,8.71
2019-03-24T06:43:26.973Z,8.75
2019-03-24T06:44:25.466Z,8.71
2019-03-24T06:45:28.462Z,8.58
2019-03-24T06:46:22.860Z,8.69
2019-03-24T06:47:23.067Z,8.72
2019-03-24T06:48:23.279Z,8.71
2019-03-24T06:49:24.993Z,8.69
2019-03-24T06:50:25.473Z,8.75
2019-03-24T06:51:26.042Z,8.76
2019-03-24T06:52:25.969Z,8.87
2019-03-24T06:53:26.017Z,8.88
2019-03-24T06:54:24.478Z,8.81
2019-03-24T06:55:26.489Z,8.83
2019-03-24T06:56:26.496Z,8.75
2019-03-24T06:57:24.977Z,8.78
2019-03-24T06:58:26.973Z,8.76
2019-03-24T06:59:26.945Z,8.86
2019-03-24T07:00:27.496Z,8.83
2019-03-24T07:01:29.472Z,8.84
2019-03-24T07:02:29.469Z,8.90
2019-03-24T07:03:30.010Z,8.96
2019-03-24T07:04:33.974Z,8.96
2019-03-24T07:05:26.333Z,9.02
2019-03-24T07:06:30.477Z,8.99
2019-03-24T07:07:28.466Z,9.02
2019-03-24T07:08:33.477Z,9.10
2019-03-24T07:09:27.034Z,9.10
2019-03-24T07:10:28.974Z,9.06
2019-03-24T07:11:27.425Z,9.09
2019-03-24T07:12:27.636Z,9.06
2019-03-24T07:13:27.846Z,9.02
2019-03-24T07:14:29.982Z,9.04
2019-03-24T07:15:28.187Z,9.04
2019-03-24T07:16:28.387Z,9.27
2019-03-24T07:17:30.471Z,9.18
2019-03-24T07:18:30.715Z,9.25
2019-03-24T07:19:29.033Z,9.30
2019-03-24T07:20:29.261Z,9.31
2019-03-24T07:21:29.458Z,9.40
2019-03-24T07:22:31.473Z,9.43
2019-03-24T07:23:30.801Z,9.52
2019-03-24T07:24:30.057Z,9.52
2019-03-24T07:25:30.130Z,9.50
2019-03-24T07:26:30.342Z,9.46
2019-03-24T07:27:30.558Z,9.49
2019-03-24T07:28:32.469Z,9.66
2019-03-24T07:29:32.706Z,9.68
2019-03-24T07:30:32.974Z,9.76
2019-03-24T07:31:31.292Z,9.78
2019-03-24T07:32:33.474Z,9.67
2019-03-24T07:33:31.689Z,9.78
2019-03-24T07:34:34.477Z,9.71
2019-03-24T07:35:32.102Z,9.88
2019-03-24T07:36:32.193Z,9.76
2019-03-24T07:37:32.293Z,9.86
2019-03-24T07:38:32.505Z,9.78
2019-03-24T07:39:36.469Z,9.85
2019-03-24T07:40:36.486Z,9.93
2019-03-24T07:41:34.996Z,10.00
2019-03-24T07:42:33.324Z,9.99
2019-03-24T07:43:36.979Z,9.88
2019-03-24T07:44:33.569Z,10.01
2019-03-24T07:45:35.490Z,9.94
2019-03-24T07:46:33.917Z,10.06
2019-03-24T07:47:34.129Z,10.12
2019-03-24T07:48:34.350Z,10.10
2019-03-24T07:49:34.582Z,10.06
2019-03-24T07:50:36.486Z,10.10
2019-03-24T07:51:55.806Z,10.10
2019-03-24T07:52:35.004Z,10.17
2019-03-24T07:53:36.210Z,10.33
2019-03-24T07:54:36.972Z,10.25
2019-03-24T07:55:35.558Z,10.44
2019-03-24T07:56:35.781Z,10.52
2019-03-24T07:57:35.999Z,10.51
2019-03-24T07:58:41.991Z,10.55
2019-03-24T07:59:37.362Z,10.46
2019-03-24T08:00:36.524Z,10.43
2019-03-24T08:01:36.732Z,10.46
2019-03-24T08:02:36.941Z,10.53
2019-03-24T08:03:38.981Z,10.66
2019-03-24T08:04:38.980Z,10.68
2019-03-24T08:05:39.011Z,10.59
2019-03-24T08:06:37.640Z,10.55
2019-03-24T08:07:37.851Z,10.62
2019-03-24T08:08:44.211Z,10.51
2019-03-24T08:09:38.256Z,10.46
2019-03-24T08:10:38.472Z,10.46
2019-03-24T08:11:40.481Z,10.63
2019-03-24T08:12:38.837Z,10.60
2019-03-24T08:13:40.976Z,10.83
2019-03-24T08:14:39.202Z,10.95
2019-03-24T08:15:42.977Z,10.68
2019-03-24T08:16:40.987Z,10.65
2019-03-24T08:17:39.570Z,10.58
2019-03-24T08:18:39.775Z,10.71
2019-03-24T08:19:39.980Z,10.94
2019-03-24T08:20:42.007Z,10.95
2019-03-24T08:21:40.326Z,10.88
2019-03-24T08:22:42.475Z,11.03
2019-03-24T08:23:42.490Z,11.07
2019-03-24T08:24:40.830Z,11.03
2019-03-24T08:25:41.041Z,10.94
2019-03-24T08:26:41.245Z,11.07
2019-03-24T08:27:41.447Z,11.16
2019-03-24T08:28:41.657Z,11.10
2019-03-24T08:29:43.473Z,10.96
2019-03-24T08:30:42.057Z,10.77
2019-03-24T08:31:43.979Z,10.92
2019-03-24T08:32:42.431Z,10.94
2019-03-24T08:33:42.682Z,10.63
2019-03-24T08:34:42.873Z,10.66
2019-03-24T08:35:43.015Z,10.62
2019-03-24T08:36:44.185Z,10.59
2019-03-24T08:37:44.975Z,10.63
2019-03-24T08:38:43.571Z,10.68
2019-03-24T08:39:44.798Z,10.56
2019-03-24T08:40:43.884Z,10.42
2019-03-24T08:41:44.094Z,10.51
2019-03-24T08:42:44.310Z,10.52
2019-03-24T08:43:44.534Z,10.36
2019-03-24T08:44:46.478Z,10.46
2019-03-24T08:45:46.476Z,10.53
2019-03-24T08:46:47.071Z,10.62
2019-03-24T08:47:45.259Z,10.76
2019-03-24T08:48:45.460Z,10.78
2019-03-24T08:49:45.674Z,10.96
2019-03-24T08:50:46.909Z,10.95
2019-03-24T08:51:47.975Z,11.16
2019-03-24T08:52:47.978Z,11.13
2019-03-24T08:53:46.463Z,10.94
2019-03-24T08:54:46.553Z,10.96
2019-03-24T08:55:46.770Z,10.92
2019-03-24T08:56:48.483Z,10.89
2019-03-24T08:57:47.192Z,10.99
2019-03-24T08:58:48.975Z,10.88
2019-03-24T08:59:48.558Z,10.98
2019-03-24T09:00:47.796Z,10.92
2019-03-24T09:01:47.972Z,10.98
2019-03-24T09:02:48.175Z,11.09
2019-03-24T09:03:48.392Z,11.20
2019-03-24T09:04:48.592Z,11.28
2019-03-24T09:05:48.819Z,11.28
2019-03-24T09:06:50.489Z,11.29
2019-03-24T09:07:52.981Z,11.21
2019-03-24T09:08:49.318Z,11.32
2019-03-24T09:09:51.479Z,11.16
2019-03-24T09:10:51.474Z,11.19
2019-03-24T09:11:49.810Z,11.19
2019-03-24T09:12:50.015Z,11.14
2019-03-24T09:13:50.229Z,11.10
2019-03-24T09:14:50.443Z,11.14
2019-03-24T09:15:50.667Z,11.19
2019-03-24T09:16:51.906Z,11.29
2019-03-24T09:17:52.475Z,11.36
2019-03-24T09:18:53.196Z,11.38
2019-03-24T09:19:52.997Z,11.62
2019-03-24T09:20:51.520Z,11.47
2019-03-24T09:21:53.482Z,11.50
2019-03-24T09:22:51.831Z,11.49
2019-03-24T09:23:52.043Z,11.59
2019-03-24T09:24:52.248Z,11.65
2019-03-24T09:25:53.993Z,11.74
2019-03-24T09:26:52.690Z,12.01
2019-03-24T09:27:52.899Z,12.05
2019-03-24T09:28:54.989Z,12.12
2019-03-24T09:29:53.326Z,12.27
2019-03-24T09:30:55.507Z,12.24
2019-03-24T09:31:53.696Z,12.37
2019-03-24T09:32:53.899Z,12.27
2019-03-24T09:33:54.103Z,12.44
2019-03-24T09:34:55.978Z,12.31
2019-03-24T09:35:54.452Z,12.12
2019-03-24T09:36:54.650Z,12.27
2019-03-24T09:37:54.868Z,12.34
2019-03-24T09:38:55.087Z,12.51
2019-03-24T09:39:55.294Z,12.59
2019-03-24T09:40:55.508Z,12.51
2019-03-24T09:41:57.494Z,12.62
2019-03-24T09:42:57.478Z,12.64
2019-03-24T09:43:56.064Z,12.48
2019-03-24T09:44:56.273Z,12.77
2019-03-24T09:45:56.485Z,12.88
2019-03-24T09:46:56.696Z,12.77
2019-03-24T09:47:56.910Z,13.17
2019-03-24T09:49:03.093Z,13.24
2019-03-24T09:49:57.347Z,13.67
2019-03-24T09:51:01.544Z,13.58
2019-03-24T09:51:57.686Z,13.37
2019-03-24T09:52:57.910Z,13.61
2019-03-24T09:53:58.109Z,13.67
2019-03-24T09:54:58.329Z,14.07
2019-03-24T09:56:21.516Z,14.56
2019-03-24T10:03:07.806Z,14.71
2019-03-24T10:04:07.814Z,15.15
2019-03-24T10:05:08.180Z,15.30
2019-03-24T10:06:31.493Z,15.92
2019-03-24T10:07:06.790Z,15.84
2019-03-24T10:08:10.802Z,16.33
2019-03-24T10:30:07.543Z,18.61
2019-03-24T10:43:08.479Z,19.43
2019-03-24T10:43:48.833Z,19.78
2019-03-24T10:47:53.945Z,18.62
2019-03-24T10:48:57.527Z,19.05
2019-03-24T10:50:17.728Z,18.64
2019-03-24T10:51:30.704Z,18.61
2019-03-24T10:55:20.939Z,19.76
2019-03-24T11:01:22.665Z,18.34
2019-03-24T11:03:55.695Z,16.96
2019-03-24T11:07:53.681Z,15.48
2019-03-24T11:08:28.187Z,15.66
2019-03-24T11:09:28.706Z,15.60
2019-03-24T11:10:51.736Z,15.24
2019-03-24T11:13:22.062Z,15.38
2019-03-24T11:14:26.087Z,15.39
2019-03-24T11:15:02.121Z,15.01
2019-03-24T11:17:58.331Z,14.32
2019-03-24T11:21:51.100Z,14.13
2019-03-24T11:22:49.809Z,14.02
2019-03-24T11:24:01.798Z,14.01
2019-03-24T11:24:49.122Z,13.73
2019-03-24T11:27:45.775Z,14.12
2019-03-24T11:28:19.072Z,14.07
2019-03-24T11:29:32.403Z,14.19
2019-03-24T11:30:13.202Z,13.99
2019-03-24T11:31:37.727Z,13.96
2019-03-24T11:33:43.950Z,13.91
2019-03-24T11:36:29.716Z,13.94
2019-03-24T11:37:15.079Z,14.06
2019-03-24T11:38:16.132Z,14.19
2019-03-24T11:42:52.644Z,13.67
2019-03-24T11:45:25.607Z,13.91
2019-03-24T11:46:25.653Z,13.74
2019-03-24T11:47:30.388Z,13.84
2019-03-24T11:48:05.111Z,13.91
2019-03-24T11:49:27.063Z,13.88
2019-03-24T11:50:03.092Z,13.89
2019-03-24T11:51:01.723Z,13.37
2019-03-24T11:53:46.593Z,13.09
2019-03-24T11:54:34.903Z,12.87
2019-03-24T11:55:37.098Z,12.70
2019-03-24T11:56:36.944Z,12.59
2019-03-24T11:57:37.008Z,12.51
2019-03-24T11:58:36.589Z,12.52
2019-03-24T12:01:52.535Z,12.45
2019-03-24T12:02:20.624Z,12.49
2019-03-24T12:03:10.576Z,12.37
2019-03-24T12:04:10.990Z,12.39
2019-03-24T12:05:31.460Z,12.30
2019-03-24T12:06:14.315Z,12.37
2019-03-24T12:09:02.802Z,12.42
2019-03-24T12:09:42.204Z,12.42
2019-03-24T12:12:15.982Z,12.49
2019-03-24T12:18:12.614Z,12.42
2019-03-24T12:19:32.761Z,12.42
2019-03-24T12:20:12.737Z,12.45
2019-03-24T12:23:16.443Z,12.45
2019-03-24T12:23:44.036Z,12.30
2019-03-24T12:24:54.618Z,12.23
2019-03-24T12:25:55.125Z,12.23
2019-03-24T12:29:57.786Z,12.24
2019-03-24T12:31:02.737Z,12.24
2019-03-24T12:33:31.869Z,12.30
2019-03-24T12:36:34.581Z,12.41
2019-03-24T12:36:57.642Z,12.44
2019-03-24T12:37:58.491Z,12.41
2019-03-24T12:39:32.445Z,12.45
2019-03-24T12:40:11.451Z,12.62
2019-03-24T12:42:38.686Z,12.63
2019-03-24T12:43:31.682Z,12.52
2019-03-24T12:44:53.047Z,12.67
2019-03-24T12:45:52.130Z,12.74
2019-03-24T12:48:05.578Z,13.00
2019-03-24T12:49:00.778Z,12.78
2019-03-24T12:50:08.953Z,12.87
2019-03-24T12:51:01.115Z,12.85
2019-03-24T12:52:01.333Z,12.74
2019-03-24T12:53:05.158Z,12.70
2019-03-24T12:54:03.593Z,12.78
2019-03-24T12:55:01.959Z,12.71
2019-03-24T12:56:02.064Z,12.88
2019-03-24T12:57:02.270Z,12.96
2019-03-24T12:58:02.474Z,12.92
2019-03-24T12:59:06.588Z,12.89
2019-03-24T13:00:02.919Z,12.97
2019-03-24T13:01:03.126Z,12.93
2019-03-24T13:02:04.347Z,12.82
2019-03-24T13:03:03.546Z,12.71
2019-03-24T13:04:15.696Z,12.82
2019-03-24T13:05:03.885Z,12.93
2019-03-24T13:06:05.605Z,13.00
2019-03-24T13:07:08.155Z,12.95
2019-03-24T13:08:12.066Z,12.87
2019-03-24T13:09:04.651Z,12.85
2019-03-24T13:10:06.662Z,12.95
2019-03-24T13:11:06.600Z,13.17
2019-03-24T13:12:05.163Z,13.32
2019-03-24T13:13:07.092Z,13.55
2019-03-24T13:14:05.562Z,13.67
2019-03-24T13:15:05.760Z,13.74
2019-03-24T13:16:05.976Z,14.06
2019-03-24T13:17:06.192Z,13.91
2019-03-24T13:18:06.419Z,13.77
2019-03-24T13:19:06.629Z,13.33
2019-03-24T13:20:19.517Z,13.37
2019-03-24T13:21:10.645Z,13.30
2019-03-24T13:22:07.287Z,13.27
2019-03-24T13:23:07.510Z,13.25
2019-03-24T13:24:07.735Z,13.29
2019-03-24T13:25:07.937Z,13.24
2019-03-24T13:26:08.152Z,13.07
2019-03-24T13:27:08.353Z,13.25
2019-03-24T13:28:08.558Z,13.44
2019-03-24T13:29:08.769Z,13.56
2019-03-24T13:30:08.987Z,13.40
2019-03-24T13:31:09.204Z,13.49
2019-03-24T13:32:11.093Z,13.54
2019-03-24T13:33:13.089Z,13.52
2019-03-24T13:34:09.711Z,13.36
2019-03-24T13:35:09.923Z,13.58
2019-03-24T13:36:10.110Z,13.73
2019-03-24T13:37:10.322Z,13.43
2019-03-24T13:38:10.533Z,13.27
2019-03-24T13:39:10.761Z,13.46
2019-03-24T13:40:10.977Z,13.27
2019-03-24T13:41:11.188Z,12.96
2019-03-24T13:42:15.091Z,12.95
2019-03-24T13:43:15.089Z,12.78
2019-03-24T13:44:11.673Z,12.66
2019-03-24T13:45:11.897Z,12.75
2019-03-24T13:46:12.105Z,12.69
2019-03-24T13:47:12.328Z,12.85
2019-03-24T13:48:12.506Z,12.85
2019-03-24T13:49:12.714Z,12.89
2019-03-24T13:50:12.945Z,12.93
2019-03-24T13:51:13.156Z,12.97
2019-03-24T13:52:13.355Z,13.02
2019-03-24T13:53:13.572Z,12.96
2019-03-24T13:54:13.768Z,12.93
2019-03-24T13:55:13.971Z,12.93
2019-03-24T13:56:14.191Z,12.93
2019-03-24T13:57:16.096Z,12.97
2019-03-24T13:58:14.561Z,13.06
2019-03-24T13:59:14.766Z,13.07
2019-03-24T14:00:14.972Z,13.15
2019-03-24T14:01:15.200Z,13.09
2019-03-24T14:02:15.297Z,13.20
2019-03-24T14:03:15.509Z,13.18
2019-03-24T14:04:15.712Z,13.24
2019-03-24T14:05:15.966Z,13.14
2019-03-24T14:06:16.131Z,13.18
2019-03-24T14:07:16.330Z,13.18
2019-03-24T14:08:16.538Z,13.20
2019-03-24T14:09:16.744Z,13.29
2019-03-24T14:10:17.010Z,13.32
2019-03-24T14:11:17.171Z,13.51
2019-03-24T14:12:17.376Z,13.54
2019-03-24T14:13:17.609Z,13.51
2019-03-24T14:14:19.601Z,13.61
2019-03-24T14:15:17.942Z,13.77
2019-03-24T14:16:18.233Z,13.71
2019-03-24T14:17:18.376Z,13.54
2019-03-24T14:18:18.592Z,13.47
2019-03-24T14:19:20.604Z,13.55
2019-03-24T14:20:18.927Z,13.70
2019-03-24T14:21:21.117Z,13.56
2019-03-24T14:22:22.143Z,13.55
2019-03-24T14:23:19.490Z,13.43
2019-03-24T14:24:19.700Z,13.95
2019-03-24T14:25:19.965Z,14.60
2019-03-24T14:26:20.139Z,14.94
2019-03-24T14:27:20.357Z,14.91
2019-03-24T14:28:22.098Z,15.27
2019-03-24T14:29:22.607Z,15.21
2019-03-24T14:30:20.947Z,15.78
2019-03-24T14:31:21.152Z,16.06
2019-03-24T14:32:21.430Z,16.20
2019-03-24T14:33:21.578Z,16.27
2019-03-24T14:34:23.621Z,15.70
2019-03-24T14:35:22.960Z,15.38
2019-03-24T14:36:24.138Z,15.42
2019-03-24T14:37:22.317Z,15.15
2019-03-24T14:38:22.522Z,15.33
2019-03-24T14:39:25.264Z,15.39
2019-03-24T14:40:23.979Z,14.91
2019-03-24T14:41:23.182Z,15.03
2019-03-24T14:42:23.422Z,15.30
2019-03-24T14:43:25.101Z,15.06